Live Weather Radar

YMHB Hobart METAR

METAR YMHB 232130Z 33009KT 9999 FEW040 13/05 Q0987 RMK RF00.0/013.6

YMHB Hobart Terminal Area Forecast (TAF)

TAF AMD YMHB 231712Z 2317/2418 33015G25KT 9999 SCT045 BKN055 FM232200 29015G25KT 9999 -SHRA SCT035 BKN050 FM240800 32012KT 9999 SCT050 FM241400 27014KT 9999 SCT035 RMK FM231800 SEV TURB BLW 5000FT TILL232200 FM232200 MOD TURB BLW 5000FT TILL241200 T 13 13 13 14 Q 985 987 987 988